Time;durP1;ratioP1;P1;durP2;ratioP2;P2;SDS_P1;SDS_P2;PMS_P1;PMS_P2;Temp;Humidity;BMP_temperature;BMP_pressure;BME280_temperature;BME280_humidity;BME280_pressure;Samples;Min_cycle;Max_cycle;Signal;HPM_P1;HPM_P2
2023/05/03 00:00:01;;;;;;;4.40;1.40;;;5.10;99.90;;;;;;4990456;28;20562;-84
2023/05/03 00:02:27;;;;;;;2.90;1.00;;;5.00;99.90;;;;;;5007572;28;20125;-84
2023/05/03 00:04:53;;;;;;;4.65;1.30;;;5.00;99.90;;;;;;5007630;28;20038;-84
2023/05/03 00:07:19;;;;;;;5.30;1.40;;;5.00;99.90;;;;;;4991001;28;20037;-85
2023/05/03 00:09:45;;;;;;;9.00;2.10;;;4.90;99.90;;;;;;5006814;28;20044;-84
2023/05/03 00:12:11;;;;;;;4.75;1.60;;;4.90;99.90;;;;;;5004603;28;20551;-84
2023/05/03 00:14:36;;;;;;;3.85;1.50;;;4.90;99.90;;;;;;4989970;28;20152;-84
2023/05/03 00:17:02;;;;;;;5.03;1.30;;;4.80;99.90;;;;;;4991417;28;20030;-84
2023/05/03 00:19:31;;;;;;;4.50;1.35;;;4.80;99.90;;;;;;5006872;28;20095;-84
2023/05/03 00:21:57;;;;;;;6.22;1.75;;;4.70;99.90;;;;;;5007705;28;20045;-84
2023/05/03 00:24:23;;;;;;;6.22;1.67;;;4.70;99.90;;;;;;5000576;28;20037;-84
2023/05/03 00:26:48;;;;;;;6.47;1.63;;;4.70;99.90;;;;;;5000721;28;20041;-84
2023/05/03 00:29:14;;;;;;;3.65;1.30;;;4.60;99.90;;;;;;5017685;28;20468;-85
2023/05/03 00:31:42;;;;;;;5.43;1.35;;;4.60;99.90;;;;;;5000861;28;20505;-85
2023/05/03 00:34:08;;;;;;;12.18;2.20;;;4.60;99.90;;;;;;5014130;28;20419;-84
2023/05/03 00:36:34;;;;;;;4.35;1.38;;;4.60;99.90;;;;;;5016477;28;20041;-85
2023/05/03 00:38:59;;;;;;;4.15;1.42;;;4.50;99.90;;;;;;5015742;28;20049;-84
2023/05/03 00:41:25;;;;;;;7.60;1.40;;;4.50;99.90;;;;;;5005162;28;20120;-84
2023/05/03 00:43:51;;;;;;;5.47;1.60;;;4.40;99.90;;;;;;5019177;28;20438;-84
2023/05/03 00:46:17;;;;;;;6.10;1.77;;;4.40;99.90;;;;;;5021010;28;20072;-85
2023/05/03 00:48:48;;;;;;;6.75;1.80;;;4.40;99.90;;;;;;5019395;28;20628;-84
2023/05/03 00:51:14;;;;;;;5.60;1.77;;;4.40;99.90;;;;;;5020165;28;20103;-84
2023/05/03 00:53:43;;;;;;;3.90;1.33;;;4.40;99.90;;;;;;5011355;28;20038;-84
2023/05/03 00:56:10;;;;;;;3.42;1.35;;;4.40;99.90;;;;;;5010092;28;20049;-84
2023/05/03 00:58:38;;;;;;;4.60;1.60;;;4.30;99.90;;;;;;5011016;28;20667;-84
2023/05/03 01:01:07;;;;;;;4.32;1.70;;;4.30;99.90;;;;;;4994142;28;20504;-84
2023/05/03 01:03:36;;;;;;;4.43;1.40;;;4.20;99.90;;;;;;5010619;28;20069;-85
2023/05/03 01:06:17;;;;;;;5.80;1.83;;;4.20;99.90;;;;;;4994440;28;20048;-84
2023/05/03 01:08:49;;;;;;;4.82;1.92;;;4.20;99.90;;;;;;5010077;28;20458;-84
2023/05/03 01:11:25;;;;;;;5.07;1.70;;;4.20;99.90;;;;;;4994803;28;20499;-84
2023/05/03 01:14:14;;;;;;;4.43;1.52;;;4.10;99.90;;;;;;5010081;28;20038;-84
2023/05/03 01:16:48;;;;;;;9.10;2.97;;;4.10;99.90;;;;;;4994090;28;20052;-84
2023/05/03 01:19:34;;;;;;;5.78;1.85;;;4.00;99.90;;;;;;4994446;28;20176;-84
2023/05/03 01:22:36;;;;;;;5.15;1.60;;;4.00;99.90;;;;;;4994106;28;20042;-84
2023/05/03 01:25:04;;;;;;;4.80;1.65;;;4.00;99.90;;;;;;4991571;28;20057;-84
2023/05/03 01:27:30;;;;;;;4.25;1.70;;;4.00;99.90;;;;;;5009330;28;20049;-84
2023/05/03 01:29:56;;;;;;;5.03;1.73;;;4.00;99.90;;;;;;5010204;28;20046;-84
2023/05/03 01:32:30;;;;;;;3.80;1.90;;;4.00;99.90;;;;;;5010459;28;20061;-84
2023/05/03 01:35:19;;;;;;;6.47;2.15;;;4.00;99.90;;;;;;5010203;28;20048;-84
2023/05/03 01:37:46;;;;;;;3.60;1.73;;;3.90;99.90;;;;;;5010127;28;20033;-84
2023/05/03 01:40:15;;;;;;;4.35;1.75;;;3.90;99.90;;;;;;5009172;28;20150;-84
2023/05/03 01:42:42;;;;;;;5.32;1.73;;;3.90;99.90;;;;;;5010449;28;20038;-84
2023/05/03 01:45:09;;;;;;;5.72;1.90;;;3.90;99.90;;;;;;5010200;28;20084;-83
2023/05/03 01:47:34;;;;;;;6.13;2.08;;;3.80;99.90;;;;;;5009560;28;20392;-83
2023/05/03 01:50:00;;;;;;;4.65;1.40;;;3.80;99.90;;;;;;4993627;28;20048;-84
2023/05/03 01:52:26;;;;;;;4.60;1.95;;;3.80;99.90;;;;;;4993416;28;20070;-84
2023/05/03 01:54:51;;;;;;;5.43;2.00;;;3.80;99.90;;;;;;5009193;28;20046;-84
2023/05/03 01:57:17;;;;;;;8.90;1.70;;;3.70;99.90;;;;;;5010388;28;20033;-84
2023/05/03 01:59:43;;;;;;;5.72;1.90;;;3.70;99.90;;;;;;4992882;28;20049;-84
2023/05/03 02:02:08;;;;;;;5.10;2.00;;;3.70;99.90;;;;;;5009846;28;20042;-84
2023/05/03 02:04:34;;;;;;;5.57;1.98;;;3.70;99.90;;;;;;4993230;28;20087;-84
2023/05/03 02:07:00;;;;;;;7.65;2.40;;;3.70;99.90;;;;;;5009322;28;20052;-84
2023/05/03 02:09:25;;;;;;;8.45;2.20;;;3.70;99.90;;;;;;4993309;28;20495;-84
2023/05/03 02:11:51;;;;;;;7.40;2.38;;;3.70;99.90;;;;;;4992625;28;20037;-84
2023/05/03 02:14:17;;;;;;;4.95;2.20;;;3.70;99.90;;;;;;5009731;28;20037;-84
2023/05/03 02:16:42;;;;;;;5.88;2.20;;;3.70;99.90;;;;;;5010149;28;20600;-84
2023/05/03 02:19:09;;;;;;;6.32;2.42;;;3.70;99.90;;;;;;4992776;28;20044;-84
2023/05/03 02:21:36;;;;;;;6.63;2.10;;;3.70;99.90;;;;;;5009492;28;20046;-84
2023/05/03 02:24:02;;;;;;;11.73;3.17;;;3.70;99.90;;;;;;4993090;28;20057;-83
2023/05/03 02:26:28;;;;;;;5.90;2.10;;;3.80;99.90;;;;;;5008866;28;20519;-84
2023/05/03 02:28:55;;;;;;;8.35;3.17;;;3.80;99.90;;;;;;5009812;28;20073;-84
2023/05/03 02:31:21;;;;;;;6.18;2.10;;;3.80;99.90;;;;;;4991877;28;20172;-84
2023/05/03 02:33:47;;;;;;;7.00;2.80;;;3.80;99.90;;;;;;5009599;28;20509;-84
2023/05/03 02:36:12;;;;;;;6.07;2.28;;;3.80;99.90;;;;;;5009036;28;20502;-84
2023/05/03 02:38:38;;;;;;;7.70;2.53;;;3.70;99.90;;;;;;5009324;28;20040;-84
2023/05/03 02:41:04;;;;;;;10.40;2.60;;;3.80;99.90;;;;;;4992872;28;20036;-84
2023/05/03 02:43:29;;;;;;;11.07;2.42;;;3.70;99.90;;;;;;4993171;28;20088;-85
2023/05/03 02:45:55;;;;;;;7.03;2.40;;;3.70;99.90;;;;;;4992838;28;20192;-84
2023/05/03 02:48:21;;;;;;;7.32;2.45;;;3.70;99.90;;;;;;4992634;28;20044;-84
2023/05/03 02:50:47;;;;;;;8.32;2.17;;;3.70;99.90;;;;;;5008680;28;20038;-84
2023/05/03 02:53:12;;;;;;;7.00;2.47;;;3.70;99.90;;;;;;5008288;28;20389;-84
2023/05/03 02:55:39;;;;;;;6.35;2.50;;;3.70;99.90;;;;;;5008162;28;20073;-84
2023/05/03 02:58:04;;;;;;;6.97;2.10;;;3.70;99.90;;;;;;5008285;28;20125;-84
2023/05/03 03:00:30;;;;;;;9.93;2.30;;;3.70;99.90;;;;;;4983604;28;20461;-84
2023/05/03 03:02:56;;;;;;;6.88;2.20;;;3.70;99.90;;;;;;5007715;28;20037;-84
2023/05/03 03:05:21;;;;;;;8.40;1.92;;;3.70;99.90;;;;;;5007667;28;20038;-84
2023/05/03 03:07:47;;;;;;;5.18;1.75;;;3.70;99.90;;;;;;5008013;28;20045;-84
2023/05/03 03:10:13;;;;;;;11.60;2.75;;;3.60;99.90;;;;;;5007799;28;20118;-84
2023/05/03 03:12:38;;;;;;;7.63;2.33;;;3.60;99.90;;;;;;5007816;28;20037;-84
2023/05/03 03:15:05;;;;;;;5.43;2.28;;;3.60;99.90;;;;;;5008262;28;20066;-84
2023/05/03 03:17:31;;;;;;;6.10;2.25;;;3.50;99.90;;;;;;4991393;28;20691;-84
2023/05/03 03:20:04;;;;;;;7.20;1.98;;;3.50;99.90;;;;;;4991640;28;20129;-85
2023/05/03 03:22:30;;;;;;;4.07;1.65;;;3.50;99.90;;;;;;5008327;28;20138;-84
2023/05/03 03:24:56;;;;;;;6.88;2.03;;;3.50;99.90;;;;;;4991254;28;20558;-84
2023/05/03 03:27:22;;;;;;;5.65;2.08;;;3.40;99.90;;;;;;4992129;28;20030;-84
2023/05/03 03:29:48;;;;;;;8.80;2.17;;;3.40;99.90;;;;;;4991813;28;20592;-84
2023/05/03 03:32:14;;;;;;;5.03;1.77;;;3.40;99.90;;;;;;5007736;28;20030;-84
2023/05/03 03:34:40;;;;;;;3.08;1.60;;;3.30;99.90;;;;;;4991726;28;20081;-84
2023/05/03 03:37:05;;;;;;;4.25;1.60;;;3.20;99.90;;;;;;5007830;28;20038;-84
2023/05/03 03:39:31;;;;;;;5.15;1.63;;;3.20;99.90;;;;;;5008229;28;20527;-84
2023/05/03 03:41:57;;;;;;;5.80;2.17;;;3.20;99.90;;;;;;4991470;28;20034;-84
2023/05/03 03:44:22;;;;;;;5.13;2.00;;;3.20;99.90;;;;;;4992255;28;20041;-84
2023/05/03 03:46:48;;;;;;;9.60;2.22;;;3.20;99.90;;;;;;5008460;28;20038;-84
2023/05/03 03:49:13;;;;;;;5.85;2.10;;;3.10;99.90;;;;;;5007479;28;20524;-84
2023/05/03 03:51:39;;;;;;;5.70;2.35;;;3.20;99.90;;;;;;5008463;28;20045;-84
2023/05/03 03:54:05;;;;;;;6.47;2.30;;;3.20;99.90;;;;;;4991785;28;20431;-84
2023/05/03 03:56:30;;;;;;;9.93;2.88;;;3.10;99.90;;;;;;5008170;28;20048;-84
2023/05/03 03:58:56;;;;;;;8.10;2.65;;;3.10;99.90;;;;;;5008484;28;20064;-84
2023/05/03 04:01:22;;;;;;;6.55;2.50;;;3.20;99.90;;;;;;5007845;28;20466;-85
2023/05/03 04:03:48;;;;;;;5.47;1.95;;;3.10;99.90;;;;;;5008002;28;20038;-84
2023/05/03 04:06:13;;;;;;;6.20;1.90;;;3.10;99.90;;;;;;4991751;28;20096;-84
2023/05/03 04:08:39;;;;;;;5.55;1.98;;;3.10;99.90;;;;;;4992068;28;20099;-84
2023/05/03 04:11:10;;;;;;;5.45;1.30;;;3.00;99.90;;;;;;4991345;28;20097;-84
2023/05/03 04:13:36;;;;;;;3.05;1.17;;;3.00;99.90;;;;;;5009147;28;20042;-84
2023/05/03 04:16:02;;;;;;;4.20;1.50;;;2.90;99.90;;;;;;5011432;28;20041;-84
2023/05/03 04:18:27;;;;;;;6.75;1.67;;;2.90;99.90;;;;;;4995838;28;20041;-84
2023/05/03 04:20:53;;;;;;;7.10;1.20;;;2.90;99.90;;;;;;5011784;28;20135;-84
2023/05/03 04:23:18;;;;;;;2.95;1.50;;;2.90;99.90;;;;;;5011184;28;20373;-84
2023/05/03 04:25:47;;;;;;;3.55;1.30;;;2.80;99.90;;;;;;4995603;28;20042;-84
2023/05/03 04:28:13;;;;;;;4.25;1.52;;;2.80;99.90;;;;;;4994787;28;20733;-84
2023/05/03 04:30:40;;;;;;;4.45;1.50;;;2.80;99.90;;;;;;5011588;28;20518;-84
2023/05/03 04:33:08;;;;;;;3.35;1.45;;;2.80;99.90;;;;;;4994716;28;20038;-84
2023/05/03 04:35:34;;;;;;;3.70;1.30;;;2.80;99.90;;;;;;5011244;28;20042;-84
2023/05/03 04:38:00;;;;;;;3.03;1.40;;;2.70;99.90;;;;;;4995385;28;20061;-84
2023/05/03 04:40:26;;;;;;;3.03;1.30;;;2.80;99.90;;;;;;4994489;28;20030;-84
2023/05/03 04:42:51;;;;;;;3.80;1.65;;;2.80;99.90;;;;;;5011590;28;20046;-84
2023/05/03 04:45:17;;;;;;;5.07;1.83;;;2.80;99.90;;;;;;5011258;28;20037;-84
2023/05/03 04:47:43;;;;;;;3.45;1.50;;;2.70;99.90;;;;;;4994735;28;20052;-84
2023/05/03 04:50:09;;;;;;;6.65;1.92;;;2.80;99.90;;;;;;4994658;28;20104;-84
2023/05/03 04:52:35;;;;;;;5.13;1.75;;;2.80;99.90;;;;;;4995077;28;20107;-84
2023/05/03 04:55:02;;;;;;;5.85;2.05;;;2.80;99.90;;;;;;5011041;28;20523;-84
2023/05/03 04:57:28;;;;;;;6.65;2.10;;;2.80;99.90;;;;;;5011016;28;20034;-84
2023/05/03 04:59:54;;;;;;;7.20;2.13;;;2.90;99.90;;;;;;4994091;28;20118;-84
2023/05/03 05:02:20;;;;;;;6.22;2.38;;;3.00;99.90;;;;;;5011199;28;20579;-84
2023/05/03 05:04:45;;;;;;;5.68;2.05;;;3.00;99.90;;;;;;4994575;28;20041;-84
2023/05/03 05:07:12;;;;;;;5.00;1.90;;;3.00;99.90;;;;;;4994877;28;20640;-84
2023/05/03 05:09:37;;;;;;;6.45;2.28;;;3.10;99.90;;;;;;4994372;28;20062;-84
2023/05/03 05:12:03;;;;;;;7.63;2.60;;;3.10;99.90;;;;;;5010371;28;20030;-84
2023/05/03 05:14:30;;;;;;;6.68;2.70;;;3.20;99.90;;;;;;4994573;28;20037;-84
2023/05/03 05:16:56;;;;;;;6.63;2.53;;;3.20;99.90;;;;;;5010776;28;20065;-84
2023/05/03 05:19:21;;;;;;;10.93;3.13;;;3.20;99.90;;;;;;5012114;28;20065;-84
2023/05/03 05:21:47;;;;;;;6.53;2.45;;;3.30;99.90;;;;;;5010930;28;20049;-84
2023/05/03 05:24:13;;;;;;;6.57;2.38;;;3.30;99.90;;;;;;5011209;28;20077;-84
2023/05/03 05:26:40;;;;;;;7.72;2.55;;;3.30;99.90;;;;;;5011302;28;20049;-84
2023/05/03 05:29:05;;;;;;;11.15;2.90;;;3.40;99.90;;;;;;5010266;28;20045;-84
2023/05/03 05:31:31;;;;;;;6.00;2.47;;;3.40;99.90;;;;;;4995206;28;20480;-85
2023/05/03 05:33:57;;;;;;;6.53;2.13;;;3.50;99.90;;;;;;5010868;28;20038;-85
2023/05/03 05:36:23;;;;;;;7.97;2.80;;;3.50;99.90;;;;;;4995249;28;20088;-84
2023/05/03 05:38:48;;;;;;;10.38;2.88;;;3.60;99.90;;;;;;5010370;28;20088;-85
2023/05/03 05:41:14;;;;;;;7.20;2.72;;;3.60;99.90;;;;;;4992469;28;20176;-85
2023/05/03 05:43:40;;;;;;;6.68;2.95;;;3.60;99.90;;;;;;5009459;28;20046;-85
2023/05/03 05:46:05;;;;;;;6.97;2.60;;;3.70;99.90;;;;;;5009407;28;20045;-85
2023/05/03 05:48:31;;;;;;;5.40;2.25;;;3.70;99.90;;;;;;4992936;28;20483;-84
2023/05/03 05:50:56;;;;;;;7.43;2.72;;;3.80;99.90;;;;;;4993149;28;20535;-84
2023/05/03 05:53:23;;;;;;;6.78;2.40;;;3.80;99.90;;;;;;5011123;28;20041;-84
2023/05/03 05:55:49;;;;;;;7.70;2.97;;;3.80;99.90;;;;;;5010655;28;20080;-84
2023/05/03 05:58:14;;;;;;;9.27;2.80;;;3.90;99.90;;;;;;4994462;28;20127;-84
2023/05/03 06:00:40;;;;;;;8.07;3.22;;;4.00;99.90;;;;;;4993688;28;20065;-84
2023/05/03 06:03:06;;;;;;;8.10;3.38;;;4.10;99.90;;;;;;5010872;28;20042;-85
2023/05/03 06:05:32;;;;;;;9.23;3.53;;;4.10;99.90;;;;;;5010739;28;20038;-85
2023/05/03 06:07:57;;;;;;;6.80;2.50;;;4.20;99.90;;;;;;4993927;28;20048;-84
2023/05/03 06:10:23;;;;;;;8.45;3.03;;;4.30;99.90;;;;;;4994386;28;20050;-84
2023/05/03 06:12:49;;;;;;;9.43;3.30;;;4.40;99.90;;;;;;4993596;28;20121;-84
2023/05/03 06:15:15;;;;;;;7.78;3.45;;;4.50;99.90;;;;;;5010227;28;20529;-84
2023/05/03 06:17:41;;;;;;;8.05;3.17;;;4.70;99.90;;;;;;5026258;28;20034;-84
2023/05/03 06:20:10;;;;;;;7.07;2.45;;;4.80;99.90;;;;;;4992373;28;20464;-84
2023/05/03 06:22:36;;;;;;;8.25;2.97;;;4.80;99.90;;;;;;4994364;28;20045;-84
2023/05/03 06:25:02;;;;;;;8.38;3.33;;;5.00;99.90;;;;;;5009353;28;20045;-84
2023/05/03 06:27:28;;;;;;;10.82;3.42;;;5.10;99.90;;;;;;4991898;28;20045;-84
2023/05/03 06:29:53;;;;;;;10.30;2.95;;;5.20;99.90;;;;;;4993163;28;20088;-84
2023/05/03 06:32:20;;;;;;;9.63;3.42;;;5.30;99.90;;;;;;5008995;28;20041;-84
2023/05/03 06:34:47;;;;;;;8.05;3.58;;;5.40;99.90;;;;;;5008982;28;20095;-84
2023/05/03 06:37:14;;;;;;;12.82;3.75;;;5.40;99.90;;;;;;5007398;28;20084;-85
2023/05/03 06:39:39;;;;;;;8.68;3.00;;;5.60;99.90;;;;;;5008830;28;20041;-85
2023/05/03 06:42:06;;;;;;;10.80;3.85;;;5.70;99.90;;;;;;5014123;28;20029;-84
2023/05/03 06:44:32;;;;;;;10.48;3.30;;;5.70;99.90;;;;;;5005480;28;20053;-84
2023/05/03 06:46:58;;;;;;;11.98;3.35;;;5.90;99.90;;;;;;4993995;28;20069;-84
2023/05/03 06:49:23;;;;;;;8.07;2.95;;;6.00;99.90;;;;;;5009046;28;20091;-84
2023/05/03 06:51:49;;;;;;;7.10;3.47;;;6.10;99.90;;;;;;4991185;28;20026;-85
2023/05/03 06:54:15;;;;;;;7.40;3.17;;;6.10;99.90;;;;;;5007323;28;20218;-85
2023/05/03 06:56:40;;;;;;;7.60;3.53;;;6.20;99.90;;;;;;4991635;28;20124;-85
2023/05/03 06:59:07;;;;;;;11.05;3.55;;;6.30;99.90;;;;;;5008064;28;20080;-85
2023/05/03 07:01:33;;;;;;;8.57;3.22;;;6.40;99.90;;;;;;5007774;28;20118;-85
2023/05/03 07:03:59;;;;;;;7.05;3.25;;;6.50;99.90;;;;;;5007296;28;20041;-85
2023/05/03 07:06:25;;;;;;;9.73;3.75;;;6.60;99.90;;;;;;5008602;28;20077;-85
2023/05/03 07:08:52;;;;;;;7.82;3.17;;;6.70;99.90;;;;;;5008269;28;20088;-84
2023/05/03 07:11:21;;;;;;;7.53;3.05;;;6.80;99.90;;;;;;5008120;28;20069;-84
2023/05/03 07:13:46;;;;;;;9.45;3.20;;;7.00;99.90;;;;;;5007994;28;20049;-85
2023/05/03 07:16:12;;;;;;;6.80;2.80;;;7.10;99.90;;;;;;4992565;28;20042;-85
2023/05/03 07:18:38;;;;;;;10.00;3.65;;;7.20;99.90;;;;;;4992381;28;20616;-85
2023/05/03 07:21:05;;;;;;;8.02;3.67;;;7.30;99.90;;;;;;4991168;28;20044;-84
2023/05/03 07:23:31;;;;;;;10.32;3.45;;;7.40;99.90;;;;;;5008623;28;20046;-85
2023/05/03 07:25:56;;;;;;;7.90;3.05;;;7.60;99.90;;;;;;5008060;28;20045;-84
2023/05/03 07:28:23;;;;;;;6.75;3.17;;;7.70;99.90;;;;;;5008644;28;20485;-85
2023/05/03 07:30:50;;;;;;;9.45;3.20;;;7.90;99.90;;;;;;5008486;28;20500;-85
2023/05/03 07:33:15;;;;;;;8.68;3.42;;;8.00;99.90;;;;;;5007782;28;20096;-85
2023/05/03 07:35:41;;;;;;;8.90;3.40;;;8.10;99.90;;;;;;4992388;28;20491;-85
2023/05/03 07:38:06;;;;;;;8.95;3.33;;;8.30;99.90;;;;;;5007735;28;20069;-85
2023/05/03 07:40:32;;;;;;;8.70;3.22;;;8.50;99.90;;;;;;5008433;28;20384;-85
2023/05/03 07:42:59;;;;;;;9.82;3.45;;;8.70;99.90;;;;;;4991972;28;20092;-85
2023/05/03 07:45:25;;;;;;;7.07;3.10;;;8.80;99.90;;;;;;5008351;28;20495;-85
2023/05/03 07:47:51;;;;;;;7.63;2.97;;;8.90;99.90;;;;;;5008031;28;20088;-85
2023/05/03 07:50:17;;;;;;;7.47;2.92;;;9.00;99.90;;;;;;5007240;28;20045;-85
2023/05/03 07:52:43;;;;;;;6.97;2.58;;;9.10;99.90;;;;;;4991704;28;20042;-85
2023/05/03 07:55:09;;;;;;;5.60;2.25;;;9.10;99.90;;;;;;5007097;28;20037;-85
2023/05/03 07:57:35;;;;;;;7.53;2.55;;;9.20;99.90;;;;;;5007846;28;20042;-84
2023/05/03 08:00:01;;;;;;;2.90;1.67;;;9.30;99.90;;;;;;5007802;28;20045;-86
2023/05/03 08:02:27;;;;;;;4.53;1.85;;;9.30;99.90;;;;;;5007982;28;20093;-86
2023/05/03 08:04:53;;;;;;;5.95;2.05;;;9.40;99.90;;;;;;5008391;28;20042;-86
2023/05/03 08:07:20;;;;;;;6.18;2.15;;;9.40;99.90;;;;;;4991379;28;20454;-87
2023/05/03 08:09:47;;;;;;;5.57;2.17;;;9.40;99.90;;;;;;5007769;28;20034;-87
2023/05/03 08:12:13;;;;;;;6.90;2.08;;;9.50;99.90;;;;;;4990467;28;20073;-86
2023/05/03 08:14:39;;;;;;;9.70;2.60;;;9.50;99.90;;;;;;5007707;28;20066;-86
2023/05/03 08:17:05;;;;;;;6.38;2.08;;;9.60;99.90;;;;;;4991973;28;20045;-86
2023/05/03 08:19:30;;;;;;;5.78;2.10;;;9.80;99.90;;;;;;5007026;28;20046;-87
2023/05/03 08:21:57;;;;;;;6.22;2.03;;;9.90;99.90;;;;;;4992160;28;20087;-87
2023/05/03 08:24:23;;;;;;;4.68;1.90;;;9.90;99.90;;;;;;5007811;28;20042;-86
2023/05/03 08:26:49;;;;;;;5.93;1.75;;;10.00;98.20;;;;;;5008892;28;20041;-86
2023/05/03 08:29:15;;;;;;;5.38;2.00;;;10.00;96.80;;;;;;5008575;28;20041;-87
2023/05/03 08:31:41;;;;;;;8.55;2.13;;;10.10;95.90;;;;;;4991161;28;20042;-87
2023/05/03 08:34:09;;;;;;;6.82;1.88;;;10.20;96.20;;;;;;5008513;28;20037;-86
2023/05/03 08:36:36;;;;;;;6.40;2.00;;;10.20;95.60;;;;;;4990978;28;20120;-87
2023/05/03 08:39:06;;;;;;;3.53;1.55;;;10.40;94.60;;;;;;4992310;28;20140;-87
2023/05/03 08:41:32;;;;;;;6.43;1.67;;;10.40;93.60;;;;;;5008223;28;20046;-87
2023/05/03 08:44:00;;;;;;;6.60;1.60;;;10.50;92.60;;;;;;4991232;28;20110;-87
2023/05/03 08:46:27;;;;;;;7.07;1.70;;;10.50;91.80;;;;;;4991440;28;20033;-86
2023/05/03 08:48:53;;;;;;;4.00;1.30;;;10.50;90.80;;;;;;4990814;28;20040;-86
2023/05/03 08:51:20;;;;;;;7.05;2.00;;;10.50;90.70;;;;;;4991183;28;20125;-87
2023/05/03 08:53:46;;;;;;;5.18;1.80;;;10.60;90.60;;;;;;5006937;28;20038;-87
2023/05/03 08:56:23;;;;;;;6.50;1.75;;;10.70;90.40;;;;;;5007019;28;20037;-87
2023/05/03 08:58:49;;;;;;;4.10;2.05;;;10.80;90.00;;;;;;4991392;28;20041;-87
2023/05/03 09:01:15;;;;;;;6.80;2.03;;;10.90;89.30;;;;;;4999905;28;20041;-87
2023/05/03 09:03:48;;;;;;;6.97;2.10;;;11.00;88.90;;;;;;5011198;28;20085;-88
2023/05/03 09:06:24;;;;;;;6.72;2.30;;;11.10;87.90;;;;;;5010374;28;20044;-87
2023/05/03 09:08:50;;;;;;;5.82;1.85;;;11.30;87.10;;;;;;5011105;28;20048;-88
2023/05/03 09:11:25;;;;;;;3.35;1.55;;;11.40;86.50;;;;;;5010715;28;20033;-88
2023/05/03 09:13:51;;;;;;;7.30;1.85;;;11.50;86.70;;;;;;5023575;28;20149;-87
2023/05/03 09:16:27;;;;;;;4.50;1.80;;;11.70;85.60;;;;;;4994307;28;20044;-87
2023/05/03 09:19:00;;;;;;;7.43;1.98;;;11.80;83.60;;;;;;4993909;28;20121;-87
2023/05/03 09:21:27;;;;;;;5.90;2.00;;;11.90;84.00;;;;;;4994699;28;20488;-87
2023/05/03 09:23:53;;;;;;;9.60;1.75;;;12.10;84.10;;;;;;5010995;28;20045;-87
2023/05/03 09:26:30;;;;;;;7.55;2.28;;;12.20;82.90;;;;;;5010347;28;20037;-87
2023/05/03 09:28:58;;;;;;;6.88;1.92;;;12.30;80.10;;;;;;5009844;28;20112;-87
2023/05/03 09:31:23;;;;;;;7.53;2.50;;;12.50;81.40;;;;;;5009827;28;20036;-87
2023/05/03 09:33:50;;;;;;;8.00;2.08;;;12.70;81.50;;;;;;4994645;28;20034;-87
2023/05/03 09:36:16;;;;;;;5.18;2.10;;;12.80;80.80;;;;;;5010950;28;20155;-87
2023/05/03 09:38:42;;;;;;;7.10;2.05;;;12.80;79.80;;;;;;4994819;28;20605;-87
2023/05/03 09:41:07;;;;;;;6.95;2.15;;;12.80;79.50;;;;;;5010633;28;20407;-86
2023/05/03 09:43:51;;;;;;;7.95;2.47;;;12.80;79.30;;;;;;4994531;28;20042;-86
2023/05/03 09:46:17;;;;;;;6.70;2.53;;;13.00;75.80;;;;;;5010408;28;20402;-86
2023/05/03 09:48:44;;;;;;;7.97;2.20;;;13.10;76.30;;;;;;4996589;28;20095;-86
2023/05/03 09:51:10;;;;;;;7.90;2.10;;;13.20;74.20;;;;;;5004833;28;20128;-86
2023/05/03 09:53:37;;;;;;;4.90;1.70;;;13.30;74.30;;;;;;4998562;28;20124;-86
2023/05/03 09:56:07;;;;;;;5.53;1.92;;;13.30;74.90;;;;;;5021464;28;20566;-86
2023/05/03 09:58:35;;;;;;;6.68;2.05;;;13.30;74.50;;;;;;5012878;28;20120;-86
2023/05/03 10:01:01;;;;;;;7.70;2.00;;;13.40;75.20;;;;;;4993767;28;20037;-86
2023/05/03 10:03:33;;;;;;;7.50;2.33;;;13.60;72.80;;;;;;5011024;28;20041;-87
2023/05/03 10:06:02;;;;;;;7.05;1.80;;;13.70;71.20;;;;;;5010204;28;20038;-87
2023/05/03 10:08:33;;;;;;;7.05;2.28;;;13.70;71.70;;;;;;5010767;28;20045;-88
2023/05/03 10:10:59;;;;;;;7.40;2.17;;;13.70;71.60;;;;;;5007609;28;20492;-86
2023/05/03 10:13:25;;;;;;;7.82;2.92;;;13.80;72.60;;;;;;5011555;28;20069;-87
2023/05/03 10:16:05;;;;;;;7.30;2.50;;;14.00;74.20;;;;;;5001234;28;20065;-87
2023/05/03 10:18:33;;;;;;;9.55;2.40;;;14.10;72.70;;;;;;5002895;28;20461;-87
2023/05/03 10:21:10;;;;;;;8.23;2.63;;;14.00;72.60;;;;;;5009349;28;20038;-87
2023/05/03 10:23:56;;;;;;;5.45;1.60;;;14.20;73.90;;;;;;4991209;28;20444;-87
2023/05/03 10:26:21;;;;;;;8.13;2.38;;;14.30;73.90;;;;;;5007934;28;20041;-86
2023/05/03 10:28:48;;;;;;;9.27;2.67;;;14.50;72.50;;;;;;5009945;28;20569;-87
2023/05/03 10:31:47;;;;;;;7.13;2.30;;;14.80;72.20;;;;;;4992780;28;20033;-87
2023/05/03 10:34:21;;;;;;;8.85;2.40;;;15.00;71.20;;;;;;5009438;28;20503;-87
2023/05/03 10:36:52;;;;;;;6.40;2.28;;;15.20;70.10;;;;;;4991908;28;20117;-87
2023/05/03 10:39:21;;;;;;;7.97;2.20;;;15.20;69.40;;;;;;5008857;28;20077;-87
2023/05/03 10:42:16;;;;;;;5.45;1.77;;;15.30;69.30;;;;;;5008327;28;20121;-87
2023/05/03 10:44:53;;;;;;;7.95;2.65;;;15.30;68.80;;;;;;4971469;28;20046;-87
2023/05/03 10:47:22;;;;;;;6.25;1.88;;;15.40;68.50;;;;;;4988121;28;20112;-87
2023/05/03 10:50:10;;;;;;;7.57;1.90;;;15.60;69.50;;;;;;4952903;28;20051;-88
2023/05/03 10:52:39;;;;;;;7.85;2.03;;;15.60;68.50;;;;;;4953177;28;20238;-88
2023/05/03 10:55:11;;;;;;;7.70;2.25;;;15.60;68.50;;;;;;4971447;28;20109;-88
2023/05/03 10:57:40;;;;;;;6.72;1.90;;;15.70;66.50;;;;;;4955678;28;20479;-88
2023/05/03 11:00:29;;;;;;;8.10;2.00;;;15.70;67.30;;;;;;4956551;28;20173;-88
2023/05/03 11:03:22;;;;;;;10.75;2.03;;;15.80;66.20;;;;;;4980499;28;20105;-88
2023/05/03 11:05:48;;;;;;;7.47;2.03;;;15.80;65.50;;;;;;4980036;28;20618;-88
2023/05/03 11:08:18;;;;;;;6.30;2.00;;;15.80;66.20;;;;;;4970204;28;20136;-88
2023/05/03 11:10:45;;;;;;;6.90;2.10;;;15.80;64.90;;;;;;4984348;28;20046;-88
2023/05/03 11:13:11;;;;;;;4.82;2.10;;;16.00;64.70;;;;;;4970782;28;20682;-89
2023/05/03 11:15:37;;;;;;;6.78;2.40;;;16.10;65.20;;;;;;4971635;28;20042;-89
2023/05/03 11:18:07;;;;;;;9.00;2.80;;;16.30;66.50;;;;;;4973996;28;20050;-89
2023/05/03 11:20:34;;;;;;;7.13;2.40;;;16.50;65.30;;;;;;4979746;28;20096;-89
2023/05/03 11:23:00;;;;;;;7.93;2.20;;;16.60;64.60;;;;;;5007862;28;20053;-89
2023/05/03 11:25:26;;;;;;;7.50;2.00;;;16.70;64.60;;;;;;5009374;28;20042;-89
2023/05/03 11:27:52;;;;;;;7.57;2.53;;;16.90;64.20;;;;;;5009128;28;20037;-87
2023/05/03 11:30:17;;;;;;;7.65;2.50;;;17.00;63.20;;;;;;5005377;28;20069;-88
2023/05/03 11:32:43;;;;;;;8.95;2.90;;;17.10;63.50;;;;;;4992175;28;20491;-89
2023/05/03 11:35:11;;;;;;;7.97;2.80;;;17.20;63.20;;;;;;5008604;28;20036;-89
2023/05/03 11:37:37;;;;;;;8.20;2.83;;;17.30;62.00;;;;;;5006766;28;20116;-89
2023/05/03 11:40:03;;;;;;;7.70;3.00;;;17.30;61.60;;;;;;5007434;28;20121;-89
2023/05/03 11:42:29;;;;;;;8.15;1.95;;;17.40;62.10;;;;;;5008086;28;20038;-89
2023/05/03 11:44:55;;;;;;;7.88;2.28;;;17.50;62.20;;;;;;4992652;28;20042;-89
2023/05/03 11:47:21;;;;;;;9.75;3.15;;;17.60;62.20;;;;;;5008399;28;20045;-89
2023/05/03 11:49:56;;;;;;;5.75;2.35;;;17.70;61.80;;;;;;5008173;28;20038;-89
2023/05/03 11:52:24;;;;;;;8.57;2.40;;;17.80;61.00;;;;;;5009163;28;20077;-89
2023/05/03 11:54:53;;;;;;;5.68;2.00;;;17.90;61.50;;;;;;5008378;28;20034;-89
2023/05/03 11:57:20;;;;;;;6.95;2.35;;;18.00;60.90;;;;;;5007362;28;20039;-88
2023/05/03 11:59:46;;;;;;;7.97;2.25;;;18.00;60.60;;;;;;5000483;28;20491;-89
2023/05/03 12:02:13;;;;;;;7.88;2.17;;;18.20;60.50;;;;;;5020220;28;20052;-89
2023/05/03 12:04:41;;;;;;;8.57;2.13;;;18.30;60.50;;;;;;5017504;28;20041;-89
2023/05/03 12:07:08;;;;;;;6.10;2.00;;;18.40;59.50;;;;;;5015238;28;20057;-89
2023/05/03 12:09:34;;;;;;;8.50;3.15;;;18.60;59.40;;;;;;4992125;28;20503;-89
2023/05/03 12:12:01;;;;;;;6.70;2.05;;;18.80;59.70;;;;;;4991649;28;20407;-88
2023/05/03 12:14:27;;;;;;;6.80;2.22;;;18.90;59.70;;;;;;4992387;28;20092;-88
2023/05/03 12:16:54;;;;;;;6.07;1.83;;;19.00;58.20;;;;;;4992851;28;20125;-88
2023/05/03 12:19:27;;;;;;;6.28;2.10;;;19.00;57.70;;;;;;5008549;28;20044;-89
2023/05/03 12:21:53;;;;;;;7.80;2.20;;;19.00;57.30;;;;;;5009141;28;20069;-89
2023/05/03 12:24:21;;;;;;;6.45;2.10;;;19.00;58.30;;;;;;4991530;28;20487;-88
2023/05/03 12:26:48;;;;;;;8.32;2.30;;;19.10;58.50;;;;;;5008597;28;20161;-89
2023/05/03 12:29:18;;;;;;;6.63;2.17;;;19.20;58.30;;;;;;5009324;28;20048;-88
2023/05/03 12:31:44;;;;;;;6.07;2.05;;;19.20;56.70;;;;;;4991730;28;20086;-89
2023/05/03 12:34:10;;;;;;;6.85;2.55;;;19.40;56.90;;;;;;5008366;28;20041;-88
2023/05/03 12:36:36;;;;;;;6.20;1.88;;;19.40;56.20;;;;;;4994444;28;20038;-89
2023/05/03 12:39:02;;;;;;;8.90;2.38;;;19.60;56.50;;;;;;4992729;28;20512;-88
2023/05/03 12:41:30;;;;;;;7.50;2.28;;;19.80;57.30;;;;;;5009199;28;20042;-89
2023/05/03 12:44:01;;;;;;;7.50;2.28;;;19.90;56.40;;;;;;4992831;28;20041;-89
2023/05/03 12:46:26;;;;;;;8.35;2.40;;;20.00;55.00;;;;;;4995969;28;20048;-89
2023/05/03 12:48:52;;;;;;;9.02;2.63;;;19.90;54.60;;;;;;5012485;28;20029;-89
2023/05/03 12:51:18;;;;;;;7.85;2.53;;;20.00;54.80;;;;;;4995908;28;20416;-89
2023/05/03 12:53:45;;;;;;;9.07;2.72;;;20.10;55.20;;;;;;5009757;28;20039;-89